Time;durP1;ratioP1;P1;durP2;ratioP2;P2;SDS_P1;SDS_P2;PMS_P1;PMS_P2;Temp;Humidity;BMP_temperature;BMP_pressure;BME280_temperature;BME280_humidity;BME280_pressure;Samples;Min_cycle;Max_cycle;Signal;HPM_P1;HPM_P2
2022/06/02 00:00:19;;;;;;;1.42;1.20;;;;;20.30;100785.00;;;;2069775;28;20214;-56
2022/06/02 00:01:35;;;;;;;1.40;1.30;;;;;20.60;100786.00;;;;2069611;28;20628;-56
2022/06/02 00:02:54;;;;;;;1.33;1.23;;;;;20.60;100791.00;;;;2062462;28;20252;-57
2022/06/02 00:04:05;;;;;;;1.52;1.42;;;;;20.60;100796.00;;;;2063969;28;20612;-59
2022/06/02 00:05:28;;;;;;;1.35;1.25;;;;;20.60;100781.00;;;;2061186;28;20318;-55
2022/06/02 00:06:52;;;;;;;1.40;1.30;;;;;20.60;100784.00;;;;2073774;28;20556;-58
2022/06/02 00:08:18;;;;;;;1.60;1.50;;;;;20.60;100791.00;;;;2077712;28;20284;-57
2022/06/02 00:09:39;;;;;;;1.30;1.20;;;;;20.60;100783.00;;;;2072098;28;20221;-57
2022/06/02 00:11:03;;;;;;;1.80;1.50;;;;;20.60;100784.00;;;;2064494;28;20225;-58
2022/06/02 00:12:06;;;;;;;1.60;1.50;;;;;20.60;100787.00;;;;2072469;28;20898;-56
2022/06/02 00:13:28;;;;;;;1.60;1.30;;;;;20.60;100779.00;;;;2069817;28;20217;-57
2022/06/02 00:14:54;;;;;;;1.35;1.25;;;;;20.60;100782.00;;;;2064295;28;20611;-57
2022/06/02 00:15:57;;;;;;;1.30;1.15;;;;;20.60;100793.00;;;;2064421;28;20272;-57
2022/06/02 00:17:01;;;;;;;1.20;1.10;;;;;20.50;100787.00;;;;2063504;28;20582;-57
2022/06/02 00:18:19;;;;;;;1.60;1.50;;;;;20.60;100791.00;;;;2062140;28;20242;-57
2022/06/02 00:19:37;;;;;;;1.20;1.10;;;;;20.60;100787.00;;;;2069904;28;20221;-57
2022/06/02 00:20:49;;;;;;;1.30;1.20;;;;;20.60;100790.00;;;;2070565;28;20233;-57
2022/06/02 00:21:52;;;;;;;1.50;1.38;;;;;20.60;100786.00;;;;2069573;28;20214;-57
2022/06/02 00:23:04;;;;;;;1.98;1.58;;;;;20.60;100790.00;;;;2053783;28;20613;-57
2022/06/02 00:24:08;;;;;;;1.48;1.20;;;;;20.50;100794.00;;;;2063725;28;20723;-56
2022/06/02 00:25:43;;;;;;;1.20;1.10;;;;;20.60;100785.00;;;;2069674;28;20707;-57
2022/06/02 00:26:51;;;;;;;2.28;1.60;;;;;20.50;100785.00;;;;2053533;28;20750;-57
2022/06/02 00:28:09;;;;;;;1.83;1.40;;;;;20.60;100773.00;;;;2063186;28;20219;-56
2022/06/02 00:29:23;;;;;;;1.20;1.10;;;;;20.50;100782.00;;;;2067787;28;20219;-57
2022/06/02 00:30:38;;;;;;;1.17;1.08;;;;;20.50;100793.00;;;;2070472;28;20263;-56
2022/06/02 00:32:04;;;;;;;1.58;1.40;;;;;20.50;100774.00;;;;2061706;28;20249;-57
2022/06/02 00:33:17;;;;;;;1.80;1.50;;;;;20.50;100787.00;;;;2067536;28;20228;-55
2022/06/02 00:34:29;;;;;;;1.50;1.40;;;;;20.50;100796.00;;;;2076091;28;20661;-56
2022/06/02 00:35:32;;;;;;;1.77;1.40;;;;;20.50;100794.00;;;;2069705;28;20276;-56
2022/06/02 00:36:41;;;;;;;1.70;1.30;;;;;20.50;100786.00;;;;2072616;28;20305;-57
2022/06/02 00:37:47;;;;;;;1.48;1.38;;;;;20.50;100793.00;;;;2069475;28;20225;-57
2022/06/02 00:38:48;;;;;;;1.67;1.58;;;;;20.50;100797.00;;;;2071116;28;20217;-57
2022/06/02 00:39:49;;;;;;;1.30;1.20;;;;;20.50;100789.00;;;;2076967;28;20221;-57
2022/06/02 00:40:50;;;;;;;1.00;0.90;;;;;20.50;100793.00;;;;2073803;28;20702;-58
2022/06/02 00:41:53;;;;;;;1.40;1.27;;;;;20.50;100793.00;;;;2065376;28;20241;-59
2022/06/02 00:43:10;;;;;;;1.23;1.13;;;;;20.50;100792.00;;;;2071024;28;20214;-57
2022/06/02 00:44:15;;;;;;;1.40;1.30;;;;;20.50;100798.00;;;;2077032;28;20213;-58
2022/06/02 00:45:16;;;;;;;1.48;1.38;;;;;20.50;100795.00;;;;2071395;28;20221;-55
2022/06/02 00:46:35;;;;;;;1.55;1.40;;;;;20.50;100793.00;;;;2062652;28;20222;-54
2022/06/02 00:47:46;;;;;;;1.40;1.30;;;;;20.50;100791.00;;;;2076448;28;20241;-56
2022/06/02 00:49:06;;;;;;;1.33;1.23;;;;;20.50;100799.00;;;;2077586;28;20222;-56
2022/06/02 00:50:33;;;;;;;1.45;1.35;;;;;20.50;100793.00;;;;2070557;28;20221;-58
2022/06/02 00:51:51;;;;;;;1.80;1.40;;;;;20.50;100797.00;;;;2051629;28;20822;-58
2022/06/02 00:53:20;;;;;;;1.42;1.27;;;;;20.50;100795.00;;;;2069504;28;20225;-58
2022/06/02 00:57:35;;;;;;;1.60;1.40;;;;;20.50;100803.00;;;;2057982;28;20226;-56
2022/06/02 00:59:11;;;;;;;1.25;1.15;;;;;20.50;100790.00;;;;2061267;28;20227;-56
2022/06/02 01:00:24;;;;;;;1.30;1.20;;;;;20.50;100804.00;;;;2068961;28;20213;-59
2022/06/02 01:01:29;;;;;;;1.30;1.20;;;;;20.50;100805.00;;;;2061859;28;20298;-57
2022/06/02 01:02:45;;;;;;;1.10;1.00;;;;;20.50;100805.00;;;;2061308;28;20243;-59
2022/06/02 01:03:47;;;;;;;1.40;1.20;;;;;20.50;100808.00;;;;2062886;28;20218;-56
2022/06/02 01:04:47;;;;;;;1.42;1.27;;;;;20.50;100809.00;;;;2067877;28;20221;-58
2022/06/02 01:06:14;;;;;;;1.40;1.30;;;;;20.50;100812.00;;;;2076362;28;20221;-57
2022/06/02 01:07:37;;;;;;;1.40;1.30;;;;;20.50;100801.00;;;;2068627;28;20218;-57
2022/06/02 01:08:45;;;;;;;1.42;1.23;;;;;20.50;100814.00;;;;2061746;28;20219;-57
2022/06/02 01:09:51;;;;;;;1.40;1.30;;;;;20.50;100812.00;;;;2062325;28;20215;-57
2022/06/02 01:11:09;;;;;;;1.38;1.15;;;;;20.50;100812.00;;;;2070998;28;20761;-57
2022/06/02 01:12:12;;;;;;;1.15;1.05;;;;;20.50;100750.00;;;;2073515;28;20237;-57
2022/06/02 01:13:36;;;;;;;1.80;1.70;;;;;20.50;100816.00;;;;2079172;28;20647;-57
2022/06/02 01:15:00;;;;;;;1.20;1.10;;;;;20.50;100815.00;;;;2073138;28;20581;-57
2022/06/02 01:16:13;;;;;;;1.40;1.30;;;;;20.50;100823.00;;;;2078964;28;20225;-57
2022/06/02 01:17:19;;;;;;;1.92;1.30;;;;;20.50;100825.00;;;;2078882;28;20217;-57
2022/06/02 01:18:40;;;;;;;1.27;1.17;;;;;20.50;100806.00;;;;2078975;28;20224;-58
2022/06/02 01:19:51;;;;;;;1.50;1.40;;;;;20.50;100826.00;;;;2077972;28;20291;-57
2022/06/02 01:20:54;;;;;;;1.40;1.30;;;;;20.50;100813.00;;;;2063978;28;20330;-57
2022/06/02 01:22:18;;;;;;;1.20;1.10;;;;;20.50;100817.00;;;;2058795;28;20220;-57
2022/06/02 01:23:33;;;;;;;1.40;1.30;;;;;20.50;100821.00;;;;2065650;28;20218;-57
2022/06/02 01:24:50;;;;;;;1.20;1.10;;;;;20.50;100815.00;;;;2070611;28;20682;-57
2022/06/02 01:26:01;;;;;;;1.20;1.10;;;;;20.50;100830.00;;;;2069902;28;20279;-56
2022/06/02 01:27:26;;;;;;;1.40;1.30;;;;;20.50;100828.00;;;;2069590;28;20210;-57
2022/06/02 01:28:32;;;;;;;1.42;1.33;;;;;20.50;100823.00;;;;2070326;28;20832;-57
2022/06/02 01:29:53;;;;;;;1.30;1.20;;;;;20.50;100828.00;;;;2062642;28;20210;-57
2022/06/02 01:30:54;;;;;;;1.65;1.55;;;;;20.50;100834.00;;;;2066032;28;20214;-57
2022/06/02 01:31:54;;;;;;;1.20;1.10;;;;;20.50;100829.00;;;;2071167;28;20280;-57
2022/06/02 01:33:14;;;;;;;1.50;1.40;;;;;20.50;100827.00;;;;2071602;28;20214;-57
2022/06/02 01:34:21;;;;;;;1.40;1.30;;;;;20.50;100824.00;;;;2070758;28;20213;-57
2022/06/02 01:35:31;;;;;;;1.50;1.40;;;;;20.50;100827.00;;;;2064645;28;20226;-57
2022/06/02 01:37:07;;;;;;;1.30;1.20;;;;;20.50;100825.00;;;;2063910;28;20229;-57
2022/06/02 01:38:15;;;;;;;1.40;1.30;;;;;20.50;100833.00;;;;2067021;28;20293;-57
2022/06/02 01:39:18;;;;;;;1.30;1.20;;;;;20.50;100832.00;;;;2063694;28;20206;-57
2022/06/02 01:40:18;;;;;;;1.60;1.23;;;;;20.50;100827.00;;;;2070662;28;20301;-57
2022/06/02 01:41:32;;;;;;;1.30;1.20;;;;;20.40;100825.00;;;;2070893;28;20226;-57
2022/06/02 01:43:00;;;;;;;1.30;1.20;;;;;20.50;100814.00;;;;2070569;28;20218;-57
2022/06/02 01:44:15;;;;;;;1.50;1.40;;;;;20.50;100819.00;;;;2066646;28;20214;-57
2022/06/02 01:45:43;;;;;;;1.33;1.23;;;;;20.50;100827.00;;;;2070505;28;20300;-57
2022/06/02 01:46:53;;;;;;;1.42;1.30;;;;;20.40;100827.00;;;;2063480;28;20214;-57
2022/06/02 01:48:03;;;;;;;1.40;1.30;;;;;20.50;100822.00;;;;2072729;28;20228;-57
2022/06/02 01:49:09;;;;;;;1.30;1.20;;;;;20.40;100827.00;;;;2078266;28;20210;-58
2022/06/02 01:50:25;;;;;;;1.40;1.20;;;;;20.40;100833.00;;;;2078750;28;20597;-58
2022/06/02 01:51:34;;;;;;;2.13;1.95;;;;;20.40;100833.00;;;;2079302;28;20222;-57
2022/06/02 01:52:47;;;;;;;1.50;1.40;;;;;20.40;100826.00;;;;2079391;28;20224;-57
2022/06/02 01:54:22;;;;;;;1.20;1.10;;;;;20.40;100830.00;;;;2071631;28;20602;-57
2022/06/02 01:55:37;;;;;;;1.98;1.35;;;;;20.40;100834.00;;;;2069999;28;20222;-57
2022/06/02 01:57:05;;;;;;;1.40;1.30;;;;;20.40;100836.00;;;;2067025;28;20245;-57
2022/06/02 01:58:24;;;;;;;1.40;1.20;;;;;20.40;100847.00;;;;2070324;28;20210;-57
2022/06/02 01:59:46;;;;;;;1.17;1.08;;;;;20.40;100832.00;;;;2071383;28;20221;-57
2022/06/02 02:00:57;;;;;;;1.30;1.20;;;;;20.40;100835.00;;;;2070491;28;20214;-57
2022/06/02 02:02:07;;;;;;;1.15;1.05;;;;;20.40;100837.00;;;;2063856;28;20223;-57
2022/06/02 02:03:10;;;;;;;1.20;1.10;;;;;20.50;100835.00;;;;2070831;28;20224;-57
2022/06/02 02:04:30;;;;;;;1.25;1.15;;;;;20.40;100833.00;;;;2071294;28;20248;-58
2022/06/02 02:06:08;;;;;;;1.30;1.20;;;;;20.50;100836.00;;;;2061402;28;20225;-62
2022/06/02 02:07:22;;;;;;;1.30;1.20;;;;;20.40;100819.00;;;;2072702;28;20310;-57
2022/06/02 02:08:54;;;;;;;1.40;1.30;;;;;20.40;100823.00;;;;2070678;28;20217;-57
2022/06/02 02:10:24;;;;;;;1.85;1.23;;;;;20.40;100833.00;;;;2057622;28;20223;-57
2022/06/02 02:11:35;;;;;;;1.20;1.00;;;;;20.40;100849.00;;;;2067200;28;20636;-57
2022/06/02 02:12:50;;;;;;;1.50;1.40;;;;;20.40;100837.00;;;;2061799;28;20219;-57
2022/06/02 02:14:08;;;;;;;1.10;1.00;;;;;20.40;100826.00;;;;2050407;28;20298;-57
2022/06/02 02:15:12;;;;;;;1.23;1.13;;;;;20.40;100830.00;;;;2064335;28;20675;-57
2022/06/02 02:16:29;;;;;;;1.05;0.80;;;;;20.50;100826.00;;;;2069794;28;20264;-57
2022/06/02 02:17:52;;;;;;;1.40;1.30;;;;;20.40;100828.00;;;;2070541;28;20229;-57
2022/06/02 02:18:58;;;;;;;1.20;1.10;;;;;20.40;100824.00;;;;2072167;28;20245;-57
2022/06/02 02:20:15;;;;;;;1.38;1.27;;;;;20.40;100828.00;;;;2078386;28;20214;-58
2022/06/02 02:21:28;;;;;;;1.58;1.30;;;;;20.40;100833.00;;;;2064057;28;20592;-57
2022/06/02 02:22:50;;;;;;;1.60;1.30;;;;;20.40;100838.00;;;;2073484;28;20221;-57
2022/06/02 02:24:23;;;;;;;1.25;1.15;;;;;20.40;100835.00;;;;2079081;28;20662;-57
2022/06/02 02:25:28;;;;;;;1.30;1.20;;;;;20.40;100835.00;;;;2077528;28;20239;-57
2022/06/02 02:26:47;;;;;;;1.20;1.10;;;;;20.40;100843.00;;;;2071042;28;20316;-57
2022/06/02 02:28:04;;;;;;;1.33;1.10;;;;;20.40;100843.00;;;;2072908;28;20754;-57
2022/06/02 02:29:18;;;;;;;1.13;1.02;;;;;20.40;100830.00;;;;2072968;28;20303;-57
2022/06/02 02:30:23;;;;;;;1.30;1.20;;;;;20.40;100837.00;;;;2073958;28;20228;-57
2022/06/02 02:31:26;;;;;;;1.20;1.10;;;;;20.40;100843.00;;;;2078420;28;20230;-56
2022/06/02 02:32:56;;;;;;;1.20;1.10;;;;;20.40;100849.00;;;;2078796;28;20264;-56
2022/06/02 02:34:19;;;;;;;1.42;1.30;;;;;20.40;100843.00;;;;2069160;28;20229;-58
2022/06/02 02:35:43;;;;;;;1.20;1.10;;;;;20.40;100848.00;;;;2078632;28;20589;-57
2022/06/02 02:37:04;;;;;;;1.48;1.38;;;;;20.40;100839.00;;;;2069881;28;20214;-57
2022/06/02 02:38:11;;;;;;;1.20;1.10;;;;;20.40;100830.00;;;;2074273;28;20784;-57
2022/06/02 02:39:37;;;;;;;1.25;1.15;;;;;20.40;100825.00;;;;2078064;28;20218;-57
2022/06/02 02:40:44;;;;;;;1.40;1.30;;;;;20.40;100850.00;;;;2073227;28;20300;-58
2022/06/02 02:42:16;;;;;;;1.30;1.20;;;;;20.40;100836.00;;;;2070157;28;20214;-57
2022/06/02 02:43:25;;;;;;;1.20;1.10;;;;;20.40;100817.00;;;;2064216;28;20277;-57
2022/06/02 02:44:34;;;;;;;1.10;1.00;;;;;20.40;100836.00;;;;2055230;28;20314;-57
2022/06/02 02:45:53;;;;;;;1.20;1.10;;;;;20.40;100839.00;;;;2064034;28;20215;-57
2022/06/02 02:47:01;;;;;;;1.35;1.25;;;;;20.40;100850.00;;;;2070272;28;20218;-57
2022/06/02 02:48:10;;;;;;;1.30;1.20;;;;;20.40;100834.00;;;;2063201;28;20431;-57
2022/06/02 02:49:24;;;;;;;1.13;1.02;;;;;20.40;100845.00;;;;2045644;28;20728;-57
2022/06/02 02:50:40;;;;;;;1.73;1.35;;;;;20.40;100845.00;;;;2065729;28;20229;-57
2022/06/02 02:51:55;;;;;;;1.20;1.08;;;;;20.40;100844.00;;;;2061611;28;20248;-57
2022/06/02 02:53:21;;;;;;;1.27;1.17;;;;;20.40;100844.00;;;;2065869;28;20288;-57
2022/06/02 02:54:37;;;;;;;1.45;1.35;;;;;20.40;100837.00;;;;2070181;28;20301;-57
2022/06/02 02:55:41;;;;;;;1.13;1.02;;;;;20.40;100849.00;;;;2063464;28;20226;-57
2022/06/02 02:57:05;;;;;;;1.27;1.17;;;;;20.40;100844.00;;;;2053868;28;20220;-57
2022/06/02 02:58:14;;;;;;;1.20;1.10;;;;;20.40;100849.00;;;;2063710;28;20218;-57
2022/06/02 02:59:36;;;;;;;1.20;1.10;;;;;20.40;100837.00;;;;2065648;28;20257;-57
2022/06/02 03:00:59;;;;;;;1.30;1.20;;;;;20.40;100850.00;;;;2062189;28;20725;-57
2022/06/02 03:02:28;;;;;;;1.50;1.40;;;;;20.40;100852.00;;;;2058295;28;20211;-57
2022/06/02 03:03:33;;;;;;;1.10;1.00;;;;;20.40;100855.00;;;;2065777;28;20226;-57
2022/06/02 03:04:39;;;;;;;1.25;1.15;;;;;20.40;100851.00;;;;2068883;28;20694;-57
2022/06/02 03:06:02;;;;;;;1.05;0.95;;;;;20.40;100851.00;;;;2069037;28;20214;-57
2022/06/02 03:07:02;;;;;;;1.25;1.15;;;;;20.40;100849.00;;;;2069202;28;20748;-57
2022/06/02 03:08:11;;;;;;;1.30;1.20;;;;;20.30;100844.00;;;;2069042;28;20273;-57
2022/06/02 03:09:20;;;;;;;1.20;1.10;;;;;20.40;100858.00;;;;2061043;28;20238;-56
2022/06/02 03:10:25;;;;;;;1.35;1.25;;;;;20.40;100853.00;;;;2062667;28;20698;-57
2022/06/02 03:11:53;;;;;;;1.42;1.20;;;;;20.40;100853.00;;;;2061276;28;20229;-57
2022/06/02 03:13:31;;;;;;;1.73;1.20;;;;;20.40;100856.00;;;;2063962;28;20685;-57
2022/06/02 03:15:00;;;;;;;1.20;1.10;;;;;20.40;100855.00;;;;2061033;28;21647;-58
2022/06/02 03:16:05;;;;;;;1.20;1.10;;;;;20.40;100858.00;;;;2059966;28;20230;-57
2022/06/02 03:17:17;;;;;;;1.02;0.85;;;;;20.40;100844.00;;;;2061977;28;20218;-57
2022/06/02 03:18:38;;;;;;;1.15;1.05;;;;;20.40;100855.00;;;;2069481;28;20220;-57
2022/06/02 03:20:02;;;;;;;1.48;1.38;;;;;20.40;100860.00;;;;2063951;28;20233;-57
2022/06/02 03:21:20;;;;;;;1.20;0.90;;;;;20.40;100854.00;;;;2068949;28;20214;-57
2022/06/02 03:22:46;;;;;;;1.20;0.90;;;;;20.40;100859.00;;;;2068313;28;20222;-57
2022/06/02 03:23:49;;;;;;;1.30;1.20;;;;;20.40;100858.00;;;;2069175;28;20260;-57
2022/06/02 03:24:56;;;;;;;1.27;1.17;;;;;20.40;100865.00;;;;2069129;28;20218;-57
2022/06/02 03:26:06;;;;;;;1.35;1.25;;;;;20.40;100865.00;;;;2068864;28;20217;-57
2022/06/02 03:27:19;;;;;;;1.40;1.30;;;;;20.40;100855.00;;;;2063180;28;20226;-58
2022/06/02 03:28:24;;;;;;;1.20;1.00;;;;;20.40;100867.00;;;;2062795;28;20245;-57
2022/06/02 03:29:52;;;;;;;1.40;1.30;;;;;20.30;100863.00;;;;2062466;28;20265;-57
2022/06/02 03:31:06;;;;;;;2.40;1.10;;;;;20.40;100866.00;;;;2069516;28;20210;-57
2022/06/02 03:32:29;;;;;;;1.20;1.10;;;;;20.40;100869.00;;;;2061528;28;20285;-57
2022/06/02 03:33:41;;;;;;;1.30;1.20;;;;;20.30;100878.00;;;;2058631;28;20217;-57
2022/06/02 03:34:48;;;;;;;1.20;1.10;;;;;20.30;100871.00;;;;2070002;28;20218;-57
2022/06/02 03:35:56;;;;;;;1.05;1.00;;;;;20.30;100876.00;;;;2068784;28;20214;-57
2022/06/02 03:37:16;;;;;;;1.10;0.98;;;;;20.30;100877.00;;;;2069749;28;20241;-57
2022/06/02 03:38:25;;;;;;;1.25;1.15;;;;;20.40;100884.00;;;;2064081;28;20214;-58
2022/06/02 03:39:50;;;;;;;1.00;0.90;;;;;20.30;100874.00;;;;2069919;28;20214;-57
2022/06/02 03:41:02;;;;;;;1.30;1.20;;;;;20.30;100862.00;;;;2070495;28;21019;-57
2022/06/02 03:42:26;;;;;;;1.40;1.30;;;;;20.40;100886.00;;;;2053396;28;20215;-57
2022/06/02 03:44:04;;;;;;;1.20;1.10;;;;;20.30;100884.00;;;;2064113;28;20213;-57
2022/06/02 03:45:25;;;;;;;1.30;1.20;;;;;20.40;100880.00;;;;2073184;28;20210;-57
2022/06/02 03:46:28;;;;;;;1.40;1.30;;;;;20.40;100899.00;;;;2069351;28;20218;-57
2022/06/02 03:47:28;;;;;;;1.13;1.02;;;;;20.30;100892.00;;;;2070397;28;20676;-57
2022/06/02 03:49:04;;;;;;;1.10;1.00;;;;;20.40;100897.00;;;;2070352;28;20217;-57
2022/06/02 03:50:26;;;;;;;1.30;1.20;;;;;20.30;100893.00;;;;2061350;28;20207;-57
2022/06/02 03:51:50;;;;;;;1.20;1.10;;;;;20.30;100887.00;;;;2057577;28;20257;-58
2022/06/02 03:53:00;;;;;;;1.50;1.40;;;;;20.30;100891.00;;;;2064716;28;20614;-57
2022/06/02 03:54:08;;;;;;;1.30;1.20;;;;;20.30;100892.00;;;;2069787;28;21029;-57
2022/06/02 03:55:50;;;;;;;1.10;0.93;;;;;20.30;100899.00;;;;2068636;28;20210;-57
2022/06/02 03:57:17;;;;;;;1.10;1.02;;;;;20.30;100903.00;;;;2066343;28;20213;-57
2022/06/02 03:58:45;;;;;;;1.10;1.00;;;;;20.30;100895.00;;;;2067619;28;20313;-58
2022/06/02 03:59:55;;;;;;;1.45;1.15;;;;;20.30;100910.00;;;;2066663;28;20381;-57
2022/06/02 04:01:04;;;;;;;1.27;1.00;;;;;20.30;100904.00;;;;2059866;28;20575;-58
2022/06/02 04:02:07;;;;;;;1.20;1.10;;;;;20.30;100902.00;;;;2061940;28;20210;-57
2022/06/02 04:03:07;;;;;;;1.40;1.17;;;;;20.30;100908.00;;;;2060871;28;20221;-58
2022/06/02 04:04:38;;;;;;;1.20;1.10;;;;;20.30;100916.00;;;;2053465;28;20700;-57
2022/06/02 04:05:44;;;;;;;1.30;1.20;;;;;20.30;100910.00;;;;2054579;28;20233;-57
2022/06/02 04:07:00;;;;;;;1.13;1.02;;;;;20.30;100909.00;;;;2061763;28;20215;-58
2022/06/02 04:08:13;;;;;;;1.10;1.00;;;;;20.30;100910.00;;;;2068336;28;20235;-57
2022/06/02 04:09:41;;;;;;;1.20;1.10;;;;;20.30;100912.00;;;;2069889;28;20217;-57
2022/06/02 04:10:49;;;;;;;1.30;1.20;;;;;20.30;100912.00;;;;2069379;28;20547;-56
2022/06/02 04:13:38;;;;;;;1.08;0.98;;;;;20.30;100919.00;;;;2069879;28;20221;-57
2022/06/02 04:15:07;;;;;;;1.20;1.05;;;;;20.30;100924.00;;;;2060791;28;20249;-57
2022/06/02 04:16:45;;;;;;;1.23;1.10;;;;;20.30;100917.00;;;;2060090;28;20242;-57
2022/06/02 04:17:52;;;;;;;1.27;1.17;;;;;20.30;100918.00;;;;2068452;28;20210;-57
2022/06/02 04:20:57;;;;;;;1.30;1.20;;;;;20.40;100926.00;;;;2068597;28;20241;-57
2022/06/02 04:22:10;;;;;;;1.40;1.30;;;;;20.40;100920.00;;;;2060689;28;20210;-58
2022/06/02 04:23:14;;;;;;;0.95;0.95;;;;;20.30;100929.00;;;;2064584;28;20209;-57
2022/06/02 04:24:30;;;;;;;1.30;1.20;;;;;20.40;100922.00;;;;2069010;28;20218;-57
2022/06/02 04:26:08;;;;;;;1.20;1.02;;;;;20.40;100926.00;;;;2060433;28;20852;-58
2022/06/02 04:27:20;;;;;;;1.27;1.17;;;;;20.40;100933.00;;;;2064519;28;20206;-57
2022/06/02 04:28:30;;;;;;;1.20;1.10;;;;;20.40;100930.00;;;;2069657;28;20273;-57
2022/06/02 04:29:52;;;;;;;1.00;0.90;;;;;20.40;100931.00;;;;2054321;28;20310;-57
2022/06/02 04:31:45;;;;;;;1.20;1.10;;;;;20.40;100934.00;;;;2055563;28;20215;-57
2022/06/02 04:32:56;;;;;;;1.30;1.20;;;;;20.20;100934.00;;;;2060978;28;20245;-57
2022/06/02 04:34:10;;;;;;;1.55;1.15;;;;;20.40;100929.00;;;;2077420;28;20213;-57
2022/06/02 04:35:26;;;;;;;1.30;1.20;;;;;20.40;100912.00;;;;2077585;28;20217;-57
2022/06/02 04:37:00;;;;;;;1.30;1.20;;;;;20.40;100941.00;;;;2077671;28;20221;-61
2022/06/02 04:38:18;;;;;;;1.30;1.20;;;;;20.40;100941.00;;;;2077940;28;20788;-57
2022/06/02 04:39:27;;;;;;;1.10;1.00;;;;;20.40;100943.00;;;;2069708;28;20217;-57
2022/06/02 04:40:46;;;;;;;1.13;1.02;;;;;20.40;100942.00;;;;2061052;28;20317;-58
2022/06/02 04:41:49;;;;;;;2.05;0.98;;;;;20.40;100944.00;;;;2061534;28;20757;-57
2022/06/02 04:43:01;;;;;;;1.50;1.40;;;;;20.40;100941.00;;;;2054776;28;20228;-57
2022/06/02 04:44:13;;;;;;;1.20;1.10;;;;;20.40;100944.00;;;;2069684;28;20210;-57
2022/06/02 04:45:34;;;;;;;1.20;1.10;;;;;20.40;100950.00;;;;2071258;28;20206;-57
2022/06/02 04:47:05;;;;;;;1.10;1.00;;;;;20.40;100949.00;;;;2058054;28;20215;-57
2022/06/02 04:48:11;;;;;;;1.40;1.30;;;;;20.40;100942.00;;;;2062614;28;20301;-57
2022/06/02 04:49:21;;;;;;;1.20;1.10;;;;;20.40;100950.00;;;;2070330;28;20279;-57
2022/06/02 04:50:26;;;;;;;1.10;1.00;;;;;20.40;100952.00;;;;2071299;28;20261;-57
2022/06/02 04:51:35;;;;;;;1.17;1.08;;;;;20.40;100953.00;;;;2063168;28;20223;-57
2022/06/02 04:53:11;;;;;;;1.20;1.10;;;;;20.40;100958.00;;;;2072013;28;20300;-57
2022/06/02 04:54:32;;;;;;;1.63;1.30;;;;;20.40;100951.00;;;;2079017;28;20213;-57
2022/06/02 04:55:57;;;;;;;1.42;1.33;;;;;20.40;100958.00;;;;2071676;28;20217;-57
2022/06/02 04:57:21;;;;;;;1.10;0.90;;;;;20.40;100959.00;;;;2071680;28;20694;-57
2022/06/02 04:58:44;;;;;;;1.50;1.40;;;;;20.40;100960.00;;;;2071023;28;20226;-58
2022/06/02 05:00:02;;;;;;;1.20;1.08;;;;;20.40;100962.00;;;;2056657;28;20204;-57
2022/06/02 05:01:33;;;;;;;1.38;1.27;;;;;20.40;100963.00;;;;2061132;28;20218;-56
2022/06/02 05:02:57;;;;;;;1.25;1.10;;;;;20.40;100965.00;;;;2068236;28;20214;-57
2022/06/02 05:04:10;;;;;;;1.40;1.30;;;;;20.40;100961.00;;;;2070862;28;20221;-58
2022/06/02 05:05:21;;;;;;;1.23;1.13;;;;;20.40;100959.00;;;;2055443;28;20278;-57
2022/06/02 05:06:51;;;;;;;1.20;1.10;;;;;20.40;100963.00;;;;2057268;28;20766;-57
2022/06/02 05:08:05;;;;;;;1.10;1.00;;;;;20.40;100962.00;;;;2068450;28;20222;-57
2022/06/02 05:09:42;;;;;;;1.20;1.05;;;;;20.40;100965.00;;;;2070608;28;20252;-57
2022/06/02 05:10:57;;;;;;;1.30;1.20;;;;;20.40;100969.00;;;;2070232;28;20430;-57
2022/06/02 05:12:02;;;;;;;0.90;0.90;;;;;20.40;100970.00;;;;2064165;28;20706;-57
2022/06/02 05:13:18;;;;;;;1.25;1.10;;;;;20.40;100963.00;;;;2061452;28;20219;-59
2022/06/02 05:14:34;;;;;;;1.00;0.90;;;;;20.40;100972.00;;;;2064131;28;20246;-57
2022/06/02 05:15:59;;;;;;;1.10;1.00;;;;;20.40;100968.00;;;;2064543;28;20372;-58
2022/06/02 05:17:24;;;;;;;1.20;1.10;;;;;20.40;100976.00;;;;2069879;28;20218;-57
2022/06/02 05:18:36;;;;;;;1.35;1.25;;;;;20.40;100968.00;;;;2070609;28;20217;-57
2022/06/02 05:19:50;;;;;;;1.30;1.20;;;;;20.40;100973.00;;;;2070621;28;20213;-58
2022/06/02 05:21:27;;;;;;;1.40;1.25;;;;;20.40;100980.00;;;;2062119;28;20217;-57
2022/06/02 05:23:06;;;;;;;1.17;1.08;;;;;20.40;100976.00;;;;2068135;28;20301;-57
2022/06/02 05:24:06;;;;;;;1.20;1.10;;;;;20.40;100913.00;;;;2058154;28;20226;-57
2022/06/02 05:25:13;;;;;;;1.10;1.00;;;;;20.40;100973.00;;;;2068575;28;20252;-57
2022/06/02 05:26:28;;;;;;;1.20;1.10;;;;;20.40;100976.00;;;;2069341;28;20237;-57
2022/06/02 05:27:53;;;;;;;1.27;1.17;;;;;20.40;100977.00;;;;2064541;28;20220;-57
2022/06/02 05:29:24;;;;;;;1.40;1.30;;;;;20.20;100978.00;;;;2067273;28;20209;-57
2022/06/02 05:30:45;;;;;;;1.10;1.00;;;;;20.40;100982.00;;;;2067102;28;20313;-57
2022/06/02 05:31:54;;;;;;;1.40;1.30;;;;;20.40;100983.00;;;;2070306;28;20222;-57
2022/06/02 05:33:28;;;;;;;1.27;1.17;;;;;20.40;100985.00;;;;2071213;28;20218;-57
2022/06/02 05:35:02;;;;;;;1.40;1.30;;;;;20.40;100983.00;;;;2071419;28;20402;-57
2022/06/02 05:36:26;;;;;;;1.20;1.10;;;;;20.40;100982.00;;;;2069894;28;20603;-56
2022/06/02 05:37:36;;;;;;;1.20;1.10;;;;;20.40;100987.00;;;;2065786;28;20225;-57
2022/06/02 05:38:55;;;;;;;1.13;1.05;;;;;20.40;100984.00;;;;2070412;28;20301;-59
2022/06/02 05:39:55;;;;;;;1.10;1.00;;;;;20.40;100987.00;;;;2071678;28;20683;-57
2022/06/02 05:41:02;;;;;;;1.50;1.30;;;;;20.40;100983.00;;;;2071613;28;20298;-57
2022/06/02 05:42:24;;;;;;;1.33;1.23;;;;;20.40;100979.00;;;;2071338;28;20939;-57
2022/06/02 05:43:43;;;;;;;1.35;1.25;;;;;20.40;100983.00;;;;2070549;28;20238;-57
2022/06/02 05:45:00;;;;;;;1.38;1.27;;;;;20.40;100989.00;;;;2071055;28;20214;-57
2022/06/02 05:46:07;;;;;;;1.42;1.33;;;;;20.50;100985.00;;;;2069996;28;20221;-57
2022/06/02 05:47:36;;;;;;;1.35;1.25;;;;;20.50;100986.00;;;;2064001;28;20219;-58
2022/06/02 05:48:51;;;;;;;1.40;1.10;;;;;20.50;100988.00;;;;2071006;28;20237;-57
2022/06/02 05:50:06;;;;;;;1.13;1.02;;;;;20.50;100991.00;;;;2070564;28;20249;-57
2022/06/02 05:51:35;;;;;;;1.20;1.10;;;;;20.40;100987.00;;;;2064534;28;20237;-57
2022/06/02 05:53:11;;;;;;;1.33;1.20;;;;;20.50;100986.00;;;;2067195;28;20229;-57
2022/06/02 05:54:32;;;;;;;1.45;1.17;;;;;20.50;100985.00;;;;2053578;28;20245;-57
2022/06/02 05:55:49;;;;;;;1.25;1.15;;;;;20.50;100985.00;;;;2053323;28;20244;-57
2022/06/02 05:57:00;;;;;;;1.52;1.10;;;;;20.50;100997.00;;;;2063079;28;20640;-57
2022/06/02 05:58:14;;;;;;;1.23;1.13;;;;;20.50;100988.00;;;;2071350;28;20302;-57
2022/06/02 05:59:36;;;;;;;1.38;1.27;;;;;20.50;100996.00;;;;2070584;28;20763;-57
2022/06/02 06:01:04;;;;;;;1.05;0.95;;;;;20.50;100985.00;;;;2070437;28;20293;-57
2022/06/02 06:02:18;;;;;;;1.10;1.00;;;;;20.50;100980.00;;;;2064033;28;20264;-57
2022/06/02 06:03:29;;;;;;;1.42;1.10;;;;;20.50;100981.00;;;;2070536;28;20222;-57
2022/06/02 06:04:58;;;;;;;1.20;1.10;;;;;20.50;100989.00;;;;2061122;28;20215;-58
2022/06/02 06:06:27;;;;;;;0.98;0.88;;;;;20.50;100982.00;;;;2070042;28;20891;-54
2022/06/02 06:07:46;;;;;;;1.30;1.20;;;;;20.50;100981.00;;;;2074960;28;20706;-59
2022/06/02 06:08:49;;;;;;;1.45;1.35;;;;;20.50;100976.00;;;;2071043;28;20746;-56
2022/06/02 06:10:01;;;;;;;1.40;1.17;;;;;20.50;100981.00;;;;2070949;28;20206;-57
2022/06/02 06:11:17;;;;;;;1.67;1.38;;;;;20.50;100986.00;;;;2061924;28;25212;-57
2022/06/02 06:12:35;;;;;;;0.98;0.95;;;;;20.50;100985.00;;;;2056227;28;20310;-58
2022/06/02 06:13:52;;;;;;;1.50;1.30;;;;;20.50;100977.00;;;;2067271;28;20714;-59
2022/06/02 06:15:03;;;;;;;1.45;1.30;;;;;20.50;100993.00;;;;2070290;28;20905;-57
2022/06/02 06:16:21;;;;;;;1.42;1.33;;;;;20.50;100992.00;;;;2063982;28;20743;-55
2022/06/02 06:17:52;;;;;;;1.48;1.38;;;;;20.50;100989.00;;;;2070299;28;20248;-56
2022/06/02 06:19:20;;;;;;;1.20;1.10;;;;;20.30;100990.00;;;;2071013;28;20210;-57
2022/06/02 06:20:39;;;;;;;1.58;1.48;;;;;20.50;100993.00;;;;2062226;28;20711;-56
2022/06/02 06:21:45;;;;;;;1.20;1.10;;;;;20.50;100989.00;;;;2068504;28;20226;-58
2022/06/02 06:23:16;;;;;;;1.38;1.27;;;;;20.50;100994.00;;;;2070104;28;20214;-57
2022/06/02 06:24:35;;;;;;;1.48;1.38;;;;;20.50;100988.00;;;;2070455;28;20214;-56